Time;durP1;ratioP1;P1;durP2;ratioP2;P2;SDS_P1;SDS_P2;PMS_P1;PMS_P2;Temp;Humidity;BMP_temperature;BMP_pressure;BME280_temperature;BME280_humidity;BME280_pressure;Samples;Min_cycle;Max_cycle;Signal;HPM_P1;HPM_P2
2022/06/12 00:00:03;;;;;;;10.13;4.50;;;;;;;;;;5035395;28;20048;-89
2022/06/12 00:02:35;;;;;;;9.07;4.40;;;;;;;;;;5038242;28;20057;-90
2022/06/12 00:05:14;;;;;;;9.35;3.92;;;;;;;;;;5037902;28;20049;-89
2022/06/12 00:07:41;;;;;;;10.93;5.40;;;;;;;;;;5035535;28;20526;-85
2022/06/12 00:10:35;;;;;;;6.85;4.10;;;;;;;;;;5035156;28;20041;-85
2022/06/12 00:13:04;;;;;;;11.60;4.13;;;;;;;;;;5031493;28;20056;-86
2022/06/12 00:15:35;;;;;;;9.60;4.00;;;;;;;;;;5343948;23;20071;-95
2022/06/12 00:18:08;;;;;;;10.43;3.97;;;;;;;;;;5025072;28;20052;-95
2022/06/12 00:20:38;;;;;;;12.63;3.78;;;;;;;;;;5023626;28;20116;-96
2022/06/12 00:32:28;;;;;;;10.82;3.78;;;;;;;;;;5010080;28;20057;-96
2022/06/12 00:35:03;;;;;;;10.15;3.50;;;;;;;;;;4984479;28;20086;-96
2022/06/12 00:37:31;;;;;;;7.78;3.67;;;;;;;;;;4968938;28;20042;-96
2022/06/12 00:40:06;;;;;;;14.73;3.97;;;;;;;;;;4966667;28;20101;-95
2022/06/12 00:42:38;;;;;;;8.10;3.70;;;;;;;;;;4988246;28;20042;-96
2022/06/12 00:45:41;;;;;;;11.02;3.42;;;;;;;;;;4973918;28;20030;-96
2022/06/12 00:48:24;;;;;;;11.70;3.50;;;;;;;;;;4972875;28;20414;-96
2022/06/12 00:51:15;;;;;;;7.75;3.33;;;;;;;;;;4995376;28;20116;-96
2022/06/12 00:53:53;;;;;;;11.68;3.80;;;;;;;;;;4970472;28;20050;-96
2022/06/12 00:56:30;;;;;;;11.15;4.32;;;;;;;;;;4971521;28;20046;-95
2022/06/12 00:59:10;;;;;;;8.10;3.25;;;;;;;;;;4972317;28;20056;-96
2022/06/12 01:01:45;;;;;;;6.43;3.20;;;;;;;;;;4999669;23;20065;-85
2022/06/12 01:07:06;;;;;;;7.78;3.10;;;;;;;;;;5001186;28;20106;-89
2022/06/12 01:09:42;;;;;;;8.77;3.35;;;;;;;;;;5001182;28;20072;-89
2022/06/12 01:12:17;;;;;;;9.13;3.50;;;;;;;;;;5001812;28;20407;-90
2022/06/12 01:15:00;;;;;;;10.27;3.25;;;;;;;;;;5002824;28;20046;-89
2022/06/12 01:17:28;;;;;;;9.48;3.20;;;;;;;;;;5002858;28;20042;-86
2022/06/12 01:20:25;;;;;;;10.60;3.67;;;;;;;;;;5001165;28;20132;-86
2022/06/12 01:23:25;;;;;;;8.25;3.40;;;;;;;;;;5003058;28;20422;-92
2022/06/12 01:26:29;;;;;;;11.27;4.38;;;;;;;;;;5004676;28;20052;-92
2022/06/12 01:29:16;;;;;;;10.02;3.67;;;;;;;;;;5004167;28;20065;-92
2022/06/12 01:32:04;;;;;;;11.25;3.78;;;;;;;;;;5005458;28;20030;-92
2022/06/12 01:34:42;;;;;;;8.68;3.30;;;;;;;;;;4989303;28;20084;-94
2022/06/12 01:37:37;;;;;;;10.57;3.58;;;;;;;;;;5011099;28;20503;-94
2022/06/12 01:40:36;;;;;;;11.65;4.32;;;;;;;;;;5007289;28;20054;-94
2022/06/12 01:43:18;;;;;;;12.65;3.72;;;;;;;;;;5010154;28;20130;-95
2022/06/12 01:45:53;;;;;;;10.80;3.50;;;;;;;;;;4991306;28;20141;-93
2022/06/12 01:48:43;;;;;;;10.25;3.63;;;;;;;;;;5010454;28;20113;-94
2022/06/12 01:51:26;;;;;;;9.80;3.80;;;;;;;;;;5008395;28;20038;-93
2022/06/12 01:54:06;;;;;;;7.03;3.40;;;;;;;;;;4993045;28;20041;-94
2022/06/12 01:56:41;;;;;;;7.25;3.30;;;;;;;;;;4990917;28;20113;-94
2022/06/12 01:59:19;;;;;;;13.90;3.70;;;;;;;;;;5006115;28;20043;-92
2022/06/12 02:01:56;;;;;;;10.70;4.15;;;;;;;;;;4992445;28;20069;-93
2022/06/12 02:04:30;;;;;;;8.98;3.58;;;;;;;;;;5023444;28;20034;-93
2022/06/12 02:07:19;;;;;;;9.43;3.25;;;;;;;;;;5005566;28;20064;-85
2022/06/12 02:09:51;;;;;;;10.05;3.95;;;;;;;;;;4997870;28;20438;-86
2022/06/12 02:15:50;;;;;;;10.70;3.80;;;;;;;;;;5003416;28;20038;-94
2022/06/12 02:18:27;;;;;;;8.35;3.85;;;;;;;;;;5006385;28;20116;-93
2022/06/12 02:21:05;;;;;;;12.48;4.03;;;;;;;;;;4988778;28;20043;-93
2022/06/12 02:23:57;;;;;;;8.45;3.20;;;;;;;;;;5006318;28;20042;-93
2022/06/12 02:26:37;;;;;;;10.05;3.83;;;;;;;;;;5004038;28;20042;-94
2022/06/12 02:29:40;;;;;;;9.98;3.70;;;;;;;;;;4997754;28;20656;-86
2022/06/12 02:32:35;;;;;;;7.97;3.42;;;;;;;;;;4999614;28;20206;-86
2022/06/12 02:35:17;;;;;;;8.52;3.28;;;;;;;;;;5000133;28;20038;-93
2022/06/12 02:38:17;;;;;;;10.48;4.15;;;;;;;;;;5005152;28;20054;-93
2022/06/12 02:40:55;;;;;;;9.23;3.65;;;;;;;;;;5004388;28;20046;-92
2022/06/12 02:43:30;;;;;;;8.88;3.85;;;;;;;;;;5003215;28;20049;-93
2022/06/12 02:46:00;;;;;;;10.45;3.72;;;;;;;;;;5006048;28;20044;-93
2022/06/12 02:48:29;;;;;;;11.55;3.88;;;;;;;;;;5008074;28;20042;-93
2022/06/12 02:51:11;;;;;;;7.85;3.58;;;;;;;;;;5003065;28;20053;-86
2022/06/12 02:54:05;;;;;;;9.27;3.08;;;;;;;;;;4983393;28;20592;-86
2022/06/12 02:57:19;;;;;;;8.10;4.30;;;;;;;;;;5002486;28;20070;-93
2022/06/12 03:00:12;;;;;;;8.15;3.17;;;;;;;;;;5006186;28;20037;-93
2022/06/12 03:03:05;;;;;;;9.57;3.13;;;;;;;;;;5003350;28;20049;-90
2022/06/12 03:05:39;;;;;;;7.72;3.50;;;;;;;;;;4985795;28;20066;-90
2022/06/12 03:08:15;;;;;;;7.25;3.78;;;;;;;;;;5002780;28;20042;-90
2022/06/12 03:11:03;;;;;;;9.05;3.20;;;;;;;;;;5002429;28;20034;-90
2022/06/12 03:13:32;;;;;;;9.75;3.75;;;;;;;;;;5003183;28;20125;-90
2022/06/12 03:16:29;;;;;;;11.48;3.97;;;;;;;;;;5003048;28;20042;-90
2022/06/12 03:19:11;;;;;;;8.10;3.20;;;;;;;;;;4982545;28;20042;-86
2022/06/12 03:22:05;;;;;;;5.72;3.25;;;;;;;;;;5000029;28;20058;-86
2022/06/12 03:24:49;;;;;;;9.02;3.67;;;;;;;;;;4999612;28;20046;-85
2022/06/12 03:27:21;;;;;;;7.32;3.03;;;;;;;;;;4999907;28;21355;-85
2022/06/12 03:30:08;;;;;;;10.15;3.17;;;;;;;;;;5001014;28;20100;-85
2022/06/12 03:32:57;;;;;;;9.60;2.90;;;;;;;;;;4998353;28;20046;-85
2022/06/12 03:36:23;;;;;;;9.23;2.88;;;;;;;;;;4998962;28;20035;-85
2022/06/12 03:39:16;;;;;;;9.07;3.40;;;;;;;;;;4998886;28;20052;-86
2022/06/12 03:42:25;;;;;;;8.82;3.33;;;;;;;;;;4998395;28;20033;-85
2022/06/12 03:45:07;;;;;;;7.65;2.95;;;;;;;;;;4999692;28;20128;-85
2022/06/12 03:47:51;;;;;;;6.55;2.58;;;;;;;;;;4999270;28;20061;-86
2022/06/12 03:50:28;;;;;;;8.65;3.45;;;;;;;;;;5000185;28;20543;-86
2022/06/12 03:53:24;;;;;;;7.68;3.65;;;;;;;;;;5001514;28;20053;-86
2022/06/12 03:59:13;;;;;;;12.20;3.28;;;;;;;;;;4997162;28;20046;-86
2022/06/12 04:01:44;;;;;;;9.80;3.53;;;;;;;;;;4993814;28;20392;-86
2022/06/12 04:04:20;;;;;;;9.95;3.13;;;;;;;;;;4999373;28;20100;-86
2022/06/12 04:06:55;;;;;;;5.93;3.13;;;;;;;;;;4999798;28;20069;-85
2022/06/12 04:09:27;;;;;;;6.38;3.05;;;;;;;;;;5002316;28;20478;-86
2022/06/12 04:12:09;;;;;;;11.80;3.90;;;;;;;;;;5002062;28;20105;-86
2022/06/12 04:17:38;;;;;;;9.90;3.10;;;;;;;;;;5002368;28;20495;-92
2022/06/12 04:20:55;;;;;;;7.35;3.70;;;;;;;;;;4988562;28;20075;-92
2022/06/12 04:23:56;;;;;;;9.45;3.10;;;;;;;;;;5004491;28;20071;-91
2022/06/12 04:26:55;;;;;;;7.50;3.05;;;;;;;;;;5007258;28;20039;-93
2022/06/12 04:29:31;;;;;;;9.82;2.95;;;;;;;;;;4994377;28;20057;-93
2022/06/12 04:32:24;;;;;;;10.25;3.42;;;;;;;;;;4998925;28;20108;-94
2022/06/12 04:34:53;;;;;;;10.60;3.60;;;;;;;;;;4957869;28;20073;-94
2022/06/12 04:37:45;;;;;;;9.73;3.30;;;;;;;;;;5007755;28;20132;-94
2022/06/12 04:40:37;;;;;;;7.30;2.97;;;;;;;;;;4971248;28;20041;-86
2022/06/12 04:43:09;;;;;;;10.43;3.33;;;;;;;;;;4997682;28;20038;-87
2022/06/12 04:45:39;;;;;;;10.02;4.25;;;;;;;;;;5002297;28;20520;-85
2022/06/12 04:48:13;;;;;;;7.50;3.70;;;;;;;;;;5003118;28;20141;-85
2022/06/12 04:51:07;;;;;;;12.85;4.05;;;;;;;;;;5000517;28;20423;-85
2022/06/12 04:53:36;;;;;;;6.88;2.92;;;;;;;;;;5006731;28;20042;-91
2022/06/12 04:56:03;;;;;;;11.13;3.03;;;;;;;;;;4999651;28;20133;-91
2022/06/12 04:58:31;;;;;;;12.88;3.40;;;;;;;;;;4982661;28;20045;-91
2022/06/12 05:00:59;;;;;;;13.18;3.78;;;;;;;;;;4998841;28;20042;-92
2022/06/12 05:03:27;;;;;;;8.73;3.28;;;;;;;;;;4999117;28;20279;-91
2022/06/12 05:05:55;;;;;;;11.00;3.38;;;;;;;;;;5003042;28;20046;-91
2022/06/12 05:08:24;;;;;;;9.73;3.08;;;;;;;;;;5000218;28;20045;-86
2022/06/12 05:10:53;;;;;;;7.75;3.30;;;;;;;;;;4999588;28;20050;-86
2022/06/12 05:13:21;;;;;;;12.55;3.00;;;;;;;;;;4999569;28;20050;-86
2022/06/12 05:16:25;;;;;;;8.20;3.17;;;;;;;;;;5000802;28;20405;-86
2022/06/12 05:18:53;;;;;;;8.65;2.67;;;;;;;;;;5001730;28;20512;-87
2022/06/12 05:21:22;;;;;;;7.82;3.00;;;;;;;;;;4999225;28;20042;-86
2022/06/12 05:23:56;;;;;;;7.88;3.20;;;;;;;;;;5014593;28;20050;-86
2022/06/12 05:26:33;;;;;;;16.30;3.45;;;;;;;;;;5003244;28;20483;-86
2022/06/12 05:29:31;;;;;;;10.73;3.00;;;;;;;;;;4999068;28;20042;-85
2022/06/12 05:32:00;;;;;;;8.52;2.80;;;;;;;;;;4998749;28;20038;-86
2022/06/12 05:34:28;;;;;;;11.85;2.90;;;;;;;;;;5004345;28;20069;-86
2022/06/12 05:37:21;;;;;;;8.52;2.45;;;;;;;;;;5016479;28;20046;-87
2022/06/12 05:39:53;;;;;;;11.32;2.63;;;;;;;;;;5000554;28;20042;-85
2022/06/12 05:42:21;;;;;;;9.25;3.13;;;;;;;;;;4996298;28;20049;-87
2022/06/12 05:44:49;;;;;;;12.88;2.92;;;;;;;;;;4994236;28;20415;-88
2022/06/12 05:47:18;;;;;;;11.70;2.65;;;;;;;;;;4998706;28;20054;-86
2022/06/12 05:49:45;;;;;;;9.38;2.10;;;;;;;;;;4997942;28;20077;-82
2022/06/12 05:55:08;;;;;;;9.48;2.40;;;;;;;;;;4995792;28;20416;-82
2022/06/12 05:57:35;;;;;;;13.65;2.42;;;;;;;;;;4997577;28;20093;-82
2022/06/12 06:00:16;;;;;;;18.75;2.60;;;;;;;;;;4996594;28;20038;-82
2022/06/12 06:02:49;;;;;;;7.85;2.33;;;;;;;;;;4994707;28;20046;-82
2022/06/12 06:05:18;;;;;;;13.73;2.20;;;;;;;;;;4995790;28;20046;-82
2022/06/12 06:07:51;;;;;;;14.90;2.60;;;;;;;;;;4997208;28;20145;-82
2022/06/12 06:10:26;;;;;;;9.07;2.03;;;;;;;;;;4993511;28;20050;-82
2022/06/12 06:13:25;;;;;;;7.35;2.22;;;;;;;;;;4995178;28;20057;-82
2022/06/12 06:16:00;;;;;;;10.15;2.13;;;;;;;;;;5009735;28;20126;-81
2022/06/12 06:18:34;;;;;;;9.57;2.38;;;;;;;;;;4994588;28;20041;-82
2022/06/12 06:21:03;;;;;;;6.53;1.92;;;;;;;;;;4993760;28;20042;-81
2022/06/12 06:23:31;;;;;;;11.93;2.20;;;;;;;;;;4995762;28;20182;-82
2022/06/12 06:25:59;;;;;;;6.47;1.70;;;;;;;;;;4995633;28;20444;-82
2022/06/12 06:28:27;;;;;;;11.95;2.13;;;;;;;;;;4994977;28;20046;-81
2022/06/12 06:30:55;;;;;;;10.60;2.35;;;;;;;;;;4993874;28;20126;-80
2022/06/12 06:33:27;;;;;;;10.38;2.63;;;;;;;;;;4994934;28;21083;-80
2022/06/12 06:36:01;;;;;;;7.57;2.03;;;;;;;;;;4994221;28;20046;-81
2022/06/12 06:38:29;;;;;;;8.30;1.83;;;;;;;;;;4996081;28;20408;-81
2022/06/12 06:41:02;;;;;;;8.80;2.15;;;;;;;;;;4994671;28;20088;-81
2022/06/12 06:46:13;;;;;;;6.53;2.00;;;;;;;;;;4995383;28;20052;-81
2022/06/12 06:46:25;;;;;;;7.38;2.30;;;;;;;;;;4994990;28;20078;-81
2022/06/12 06:48:53;;;;;;;12.88;2.05;;;;;;;;;;4994326;28;20046;-82
2022/06/12 06:51:21;;;;;;;13.25;2.10;;;;;;;;;;4978774;28;20566;-81
2022/06/12 06:53:49;;;;;;;11.50;1.92;;;;;;;;;;4994113;28;20069;-81
2022/06/12 06:56:18;;;;;;;9.50;2.05;;;;;;;;;;4995434;28;20077;-80
2022/06/12 06:58:45;;;;;;;10.60;2.45;;;;;;;;;;4994347;28;20046;-81
2022/06/12 07:01:17;;;;;;;8.90;1.70;;;;;;;;;;4979038;28;20156;-81
2022/06/12 07:03:52;;;;;;;8.27;2.33;;;;;;;;;;4994516;28;20045;-81
2022/06/12 07:06:21;;;;;;;11.18;2.25;;;;;;;;;;4995285;28;20034;-81
2022/06/12 07:08:55;;;;;;;6.82;2.40;;;;;;;;;;4994638;28;20048;-82
2022/06/12 07:11:24;;;;;;;12.65;2.42;;;;;;;;;;4977519;28;20446;-81
2022/06/12 07:13:52;;;;;;;9.32;2.03;;;;;;;;;;4994094;28;20041;-81
2022/06/12 07:16:20;;;;;;;11.45;2.20;;;;;;;;;;4992700;28;20130;-82
2022/06/12 07:18:53;;;;;;;9.68;1.80;;;;;;;;;;4993799;28;20057;-82
2022/06/12 07:21:22;;;;;;;7.57;2.28;;;;;;;;;;4996044;28;20046;-82
2022/06/12 07:23:49;;;;;;;9.85;2.20;;;;;;;;;;4994600;28;20124;-82
2022/06/12 07:26:37;;;;;;;10.57;2.00;;;;;;;;;;4994564;28;20104;-82
2022/06/12 07:29:05;;;;;;;7.25;1.63;;;;;;;;;;4995664;28;20598;-82
2022/06/12 07:31:35;;;;;;;9.52;2.60;;;;;;;;;;5008200;28;20042;-82
2022/06/12 07:34:04;;;;;;;8.52;1.92;;;;;;;;;;4994196;28;20068;-82
2022/06/12 07:36:35;;;;;;;9.90;1.92;;;;;;;;;;4992302;28;20632;-81
2022/06/12 07:39:05;;;;;;;8.63;1.77;;;;;;;;;;4994530;28;20050;-81
2022/06/12 07:41:45;;;;;;;7.43;1.50;;;;;;;;;;4996075;28;20045;-81
2022/06/12 07:44:14;;;;;;;5.03;1.33;;;;;;;;;;5001218;28;20113;-81
2022/06/12 07:47:08;;;;;;;9.40;1.65;;;;;;;;;;4997180;28;20042;-81
2022/06/12 07:49:36;;;;;;;10.35;1.70;;;;;;;;;;4998825;28;20042;-81
2022/06/12 07:52:06;;;;;;;5.68;1.23;;;;;;;;;;4998190;28;20743;-81
2022/06/12 07:54:39;;;;;;;7.57;1.50;;;;;;;;;;4995641;28;20057;-81
2022/06/12 08:00:25;;;;;;;5.50;1.30;;;;;;;;;;4994589;28;20042;-81
2022/06/12 08:03:17;;;;;;;7.30;1.98;;;;;;;;;;4994341;28;21045;-81
2022/06/12 08:05:45;;;;;;;10.43;1.67;;;;;;;;;;4993426;28;20041;-81
2022/06/12 08:08:13;;;;;;;10.98;1.98;;;;;;;;;;4994433;28;20073;-81
2022/06/12 08:10:45;;;;;;;7.22;1.30;;;;;;;;;;4995709;28;20510;-82
2022/06/12 08:13:15;;;;;;;7.32;1.50;;;;;;;;;;4999106;28;20038;-82
2022/06/12 08:16:13;;;;;;;8.40;1.80;;;;;;;;;;4995048;28;20942;-82
2022/06/12 08:18:41;;;;;;;10.80;1.35;;;;;;;;;;4995736;28;20050;-83
2022/06/12 08:21:15;;;;;;;6.38;1.45;;;;;;;;;;4998507;28;20077;-83
2022/06/12 08:23:59;;;;;;;4.85;1.15;;;;;;;;;;5008814;28;20038;-83
2022/06/12 08:26:33;;;;;;;4.95;1.10;;;;;;;;;;4994213;28;20046;-83
2022/06/12 08:29:05;;;;;;;5.63;1.17;;;;;;;;;;4993395;28;20121;-83
2022/06/12 08:31:43;;;;;;;7.13;1.30;;;;;;;;;;4993690;28;20046;-83
2022/06/12 08:34:22;;;;;;;9.80;1.35;;;;;;;;;;4992263;28;20919;-83
2022/06/12 08:36:52;;;;;;;9.02;1.75;;;;;;;;;;5008917;28;20061;-83
2022/06/12 08:40:00;;;;;;;4.55;1.35;;;;;;;;;;4995883;28;20049;-83
2022/06/12 08:42:41;;;;;;;5.55;1.23;;;;;;;;;;4993032;28;20165;-82
2022/06/12 08:45:42;;;;;;;5.85;1.38;;;;;;;;;;4993354;28;20038;-83
2022/06/12 08:48:09;;;;;;;5.37;1.30;;;;;;;;;;4978280;28;20113;-83
2022/06/12 08:51:34;;;;;;;5.53;1.20;;;;;;;;;;4995536;28;20448;-83
2022/06/12 08:54:33;;;;;;;4.85;1.42;;;;;;;;;;4998791;28;20038;-84
2022/06/12 08:57:47;;;;;;;6.05;1.25;;;;;;;;;;4997342;28;20050;-83
2022/06/12 09:00:39;;;;;;;5.82;1.23;;;;;;;;;;4998096;28;20038;-83
2022/06/12 09:03:28;;;;;;;5.97;1.13;;;;;;;;;;4998360;28;20039;-83
2022/06/12 09:06:23;;;;;;;7.15;1.42;;;;;;;;;;4996814;28;20285;-86
2022/06/12 09:09:07;;;;;;;6.63;1.27;;;;;;;;;;4995850;28;20050;-83
2022/06/12 09:12:12;;;;;;;6.60;1.33;;;;;;;;;;4996867;28;20117;-82
2022/06/12 09:15:10;;;;;;;6.20;1.33;;;;;;;;;;4997289;28;20152;-83
2022/06/12 09:17:51;;;;;;;3.67;1.17;;;;;;;;;;4997288;28;20042;-83
2022/06/12 09:20:53;;;;;;;5.53;1.50;;;;;;;;;;4995627;28;20050;-83
2022/06/12 09:23:31;;;;;;;6.35;1.02;;;;;;;;;;4996077;28;20088;-82
2022/06/12 09:26:43;;;;;;;4.90;1.20;;;;;;;;;;4995419;28;20049;-82
2022/06/12 09:29:21;;;;;;;4.80;1.02;;;;;;;;;;4996543;28;20093;-82
2022/06/12 09:32:12;;;;;;;6.47;1.13;;;;;;;;;;4994510;28;20120;-83
2022/06/12 09:34:59;;;;;;;5.00;1.60;;;;;;;;;;4995007;28;20057;-83
2022/06/12 09:40:24;;;;;;;5.72;1.38;;;;;;;;;;4994112;28;20119;-84
2022/06/12 09:43:11;;;;;;;4.70;1.17;;;;;;;;;;4996816;28;20450;-84
2022/06/12 09:46:52;;;;;;;7.03;1.50;;;;;;;;;;4900400;29;20087;-83
2022/06/12 09:49:31;;;;;;;9.02;1.85;;;;;;;;;;4904842;29;20404;-83
2022/06/12 09:52:36;;;;;;;6.07;1.15;;;;;;;;;;4873082;29;20837;-83
2022/06/12 09:55:25;;;;;;;8.43;1.50;;;;;;;;;;4906254;29;20620;-83
2022/06/12 09:58:33;;;;;;;8.25;1.50;;;;;;;;;;4901919;29;20107;-83
2022/06/12 10:01:55;;;;;;;7.00;1.25;;;;;;;;;;4905493;29;20178;-84
2022/06/12 10:05:14;;;;;;;6.35;1.35;;;;;;;;;;4908781;29;20060;-84
2022/06/12 10:12:53;;;;;;;;;;;;;;;;;;4889241;29;20079;-84
2022/06/12 10:15:55;;;;;;;5.78;1.20;;;;;;;;;;4875433;29;19947;-84
2022/06/12 10:19:36;;;;;;;6.80;1.33;;;;;;;;;;4887864;29;20060;-84
2022/06/12 10:22:41;;;;;;;7.63;1.90;;;;;;;;;;4895879;29;20102;-85
2022/06/12 10:25:53;;;;;;;3.85;1.10;;;;;;;;;;4925460;29;20139;-88
2022/06/12 10:33:18;;;;;;;5.82;1.00;;;;;;;;;;4964554;28;20050;-85
2022/06/12 10:36:41;;;;;;;6.85;1.20;;;;;;;;;;4955094;28;20157;-84
2022/06/12 10:40:26;;;;;;;5.70;1.50;;;;;;;;;;4935738;28;20990;-84
2022/06/12 10:43:49;;;;;;;6.38;1.17;;;;;;;;;;4928936;28;20056;-84
2022/06/12 10:48:03;;;;;;;5.90;1.80;;;;;;;;;;4935996;28;20111;-85
2022/06/12 10:52:25;;;;;;;5.10;1.17;;;;;;;;;;4901226;29;20087;-85
2022/06/12 10:57:23;;;;;;;5.97;1.20;;;;;;;;;;4897836;29;20557;-85
2022/06/12 11:06:03;;;;;;;5.40;1.30;;;;;;;;;;4823837;29;20073;-84
2022/06/12 11:08:58;;;;;;;3.85;1.38;;;;;;;;;;4823709;29;20115;-82
2022/06/12 11:11:43;;;;;;;4.40;1.17;;;;;;;;;;4838844;29;20077;-82
2022/06/12 11:14:26;;;;;;;5.00;1.27;;;;;;;;;;4824037;29;20602;-82
2022/06/12 11:17:08;;;;;;;5.80;1.30;;;;;;;;;;4815199;29;20150;-83
2022/06/12 11:19:43;;;;;;;5.80;1.42;;;;;;;;;;4784305;29;20055;-82
2022/06/12 11:22:28;;;;;;;3.67;1.27;;;;;;;;;;4821235;29;20122;-82
2022/06/12 11:25:16;;;;;;;6.43;1.10;;;;;;;;;;4814419;29;20157;-83
2022/06/12 11:27:54;;;;;;;5.30;1.42;;;;;;;;;;4847801;29;20061;-82
2022/06/12 11:30:30;;;;;;;6.07;1.58;;;;;;;;;;4851562;29;20064;-83
2022/06/12 11:33:42;;;;;;;6.78;1.30;;;;;;;;;;4930787;28;20050;-84
2022/06/12 11:36:25;;;;;;;4.05;1.00;;;;;;;;;;4997462;28;20136;-82
2022/06/12 11:39:11;;;;;;;5.40;1.38;;;;;;;;;;4997333;28;20069;-82
2022/06/12 11:42:16;;;;;;;7.13;1.20;;;;;;;;;;4996375;28;20049;-84
2022/06/12 11:45:18;;;;;;;5.85;1.30;;;;;;;;;;4994760;28;20049;-83
2022/06/12 11:47:54;;;;;;;6.47;1.38;;;;;;;;;;4991060;28;20049;-83
2022/06/12 11:50:41;;;;;;;9.00;1.50;;;;;;;;;;4996279;28;20053;-84
2022/06/12 11:53:54;;;;;;;5.00;1.10;;;;;;;;;;4994522;28;20034;-83
2022/06/12 11:56:54;;;;;;;6.53;1.40;;;;;;;;;;4996096;28;20124;-84
2022/06/12 12:00:46;;;;;;;4.32;1.23;;;;;;;;;;4934710;29;20078;-84
2022/06/12 12:04:02;;;;;;;5.72;1.25;;;;;;;;;;4934015;29;20059;-84
2022/06/12 12:07:23;;;;;;;5.63;1.30;;;;;;;;;;4878022;29;20235;-82
2022/06/12 12:10:28;;;;;;;6.75;1.58;;;;;;;;;;4843476;29;20145;-82
2022/06/12 12:13:42;;;;;;;4.88;1.42;;;;;;;;;;4840355;29;20086;-83
2022/06/12 12:19:38;;;;;;;5.55;1.30;;;;;;;;;;4842088;29;20058;-83
2022/06/12 12:22:26;;;;;;;8.68;1.48;;;;;;;;;;4842767;29;20065;-83
2022/06/12 12:25:16;;;;;;;7.55;1.50;;;;;;;;;;4843662;29;20068;-83
2022/06/12 12:27:47;;;;;;;5.38;1.20;;;;;;;;;;4850302;29;20149;-84
2022/06/12 12:30:26;;;;;;;5.60;1.52;;;;;;;;;;4835949;29;20057;-84
2022/06/12 12:33:20;;;;;;;6.05;1.50;;;;;;;;;;4846032;29;20081;-82
2022/06/12 12:42:24;;;;;;;5.57;1.25;;;;;;;;;;4882052;29;20182;-82
2022/06/12 12:44:51;;;;;;;6.85;1.45;;;;;;;;;;4925327;28;20078;-82
2022/06/12 12:47:27;;;;;;;3.47;1.25;;;;;;;;;;4940227;28;20039;-83
2022/06/12 12:50:22;;;;;;;5.97;1.70;;;;;;;;;;4985978;28;20050;-84
2022/06/12 12:52:55;;;;;;;10.35;2.75;;;;;;;;;;5000308;28;20068;-82
2022/06/12 12:55:25;;;;;;;8.20;1.95;;;;;;;;;;5005282;28;20042;-83
2022/06/12 12:57:55;;;;;;;8.25;1.90;;;;;;;;;;5005813;28;20065;-84
2022/06/12 13:00:30;;;;;;;6.93;1.73;;;;;;;;;;5002040;28;20061;-82
2022/06/12 13:03:10;;;;;;;7.30;1.90;;;;;;;;;;5000731;28;20077;-83
2022/06/12 13:05:45;;;;;;;3.85;1.30;;;;;;;;;;5004920;28;20077;-82
2022/06/12 13:08:49;;;;;;;6.47;1.50;;;;;;;;;;5005592;28;20061;-82
2022/06/12 13:11:35;;;;;;;10.10;1.80;;;;;;;;;;5009491;28;20052;-82
2022/06/12 13:14:10;;;;;;;5.60;1.50;;;;;;;;;;4991554;28;20038;-82
2022/06/12 13:16:52;;;;;;;6.82;1.65;;;;;;;;;;5005005;28;20046;-83
2022/06/12 13:19:22;;;;;;;7.88;1.83;;;;;;;;;;4992447;28;20057;-82
2022/06/12 13:22:19;;;;;;;7.22;2.05;;;;;;;;;;5003845;28;20710;-81
2022/06/12 13:24:51;;;;;;;4.68;1.40;;;;;;;;;;5001060;28;20070;-81
2022/06/12 13:27:22;;;;;;;5.53;1.88;;;;;;;;;;5001713;28;20060;-82
2022/06/12 13:29:53;;;;;;;6.95;1.95;;;;;;;;;;4999988;28;20505;-81
2022/06/12 13:32:25;;;;;;;6.07;1.65;;;;;;;;;;5000205;28;20895;-82
2022/06/12 13:35:31;;;;;;;5.88;1.70;;;;;;;;;;4999709;28;20045;-83
2022/06/12 13:38:05;;;;;;;7.82;1.83;;;;;;;;;;4980022;28;20078;-81
2022/06/12 13:40:38;;;;;;;7.77;1.80;;;;;;;;;;4995580;28;20046;-81
2022/06/12 13:43:55;;;;;;;5.75;1.88;;;;;;;;;;4995184;28;20049;-81
2022/06/12 13:46:33;;;;;;;8.93;2.08;;;;;;;;;;4995282;28;20049;-81
2022/06/12 13:49:01;;;;;;;8.13;1.92;;;;;;;;;;4994947;28;20125;-81
2022/06/12 13:51:56;;;;;;;7.05;2.00;;;;;;;;;;4996029;28;20034;-82
2022/06/12 13:54:49;;;;;;;6.75;1.73;;;;;;;;;;4999394;28;20045;-82
2022/06/12 13:57:35;;;;;;;6.45;1.50;;;;;;;;;;4983293;28;20050;-82
2022/06/12 14:00:22;;;;;;;9.88;2.00;;;;;;;;;;4980030;28;20046;-82
2022/06/12 14:02:51;;;;;;;7.18;1.88;;;;;;;;;;4996225;28;20526;-83
2022/06/12 14:05:27;;;;;;;6.70;2.00;;;;;;;;;;4996771;28;20128;-83
2022/06/12 14:07:56;;;;;;;8.73;2.05;;;;;;;;;;4996040;28;20050;-82
2022/06/12 14:10:30;;;;;;;6.00;1.33;;;;;;;;;;5012050;28;20073;-82
2022/06/12 14:13:14;;;;;;;5.30;1.38;;;;;;;;;;4997229;28;20160;-81
2022/06/12 14:15:42;;;;;;;5.32;1.42;;;;;;;;;;4998532;28;20148;-81
2022/06/12 14:18:29;;;;;;;5.30;1.73;;;;;;;;;;4996655;28;20065;-81
2022/06/12 14:21:23;;;;;;;6.28;1.88;;;;;;;;;;4995444;28;20055;-80
2022/06/12 14:24:03;;;;;;;9.77;1.75;;;;;;;;;;4995541;28;20128;-81
2022/06/12 14:26:42;;;;;;;6.93;1.45;;;;;;;;;;4996401;28;20587;-82
2022/06/12 14:29:37;;;;;;;6.60;1.60;;;;;;;;;;4997935;28;20065;-82
2022/06/12 14:32:11;;;;;;;7.47;2.28;;;;;;;;;;4999184;28;20057;-82
2022/06/12 14:34:42;;;;;;;7.17;1.80;;;;;;;;;;4997321;28;20070;-81
2022/06/12 14:37:25;;;;;;;6.80;1.60;;;;;;;;;;4995520;28;20043;-82
2022/06/12 14:40:15;;;;;;;7.25;1.52;;;;;;;;;;4997892;28;20060;-83
2022/06/12 14:43:09;;;;;;;5.75;1.48;;;;;;;;;;4995851;28;20136;-82
2022/06/12 14:45:40;;;;;;;6.45;1.88;;;;;;;;;;4994278;28;20046;-81
2022/06/12 14:48:18;;;;;;;6.45;1.80;;;;;;;;;;4994438;28;20865;-82
2022/06/12 14:51:35;;;;;;;6.07;1.90;;;;;;;;;;4996006;28;20132;-81
2022/06/12 14:54:03;;;;;;;10.52;2.03;;;;;;;;;;4993867;28;20042;-81
2022/06/12 14:56:32;;;;;;;6.65;1.60;;;;;;;;;;4993732;28;20042;-82
2022/06/12 14:58:59;;;;;;;7.78;1.50;;;;;;;;;;4993280;28;20069;-81
2022/06/12 15:01:51;;;;;;;7.70;1.83;;;;;;;;;;4994574;28;20034;-81
2022/06/12 15:04:19;;;;;;;8.55;1.80;;;;;;;;;;4994869;28;20362;-81
2022/06/12 15:06:47;;;;;;;6.80;1.70;;;;;;;;;;4992050;28;20057;-81
2022/06/12 15:09:15;;;;;;;6.90;1.60;;;;;;;;;;4993976;28;20046;-81
2022/06/12 15:11:43;;;;;;;7.05;1.80;;;;;;;;;;4993881;28;20499;-81
2022/06/12 15:14:14;;;;;;;8.18;1.70;;;;;;;;;;4995492;28;20045;-81
2022/06/12 15:16:47;;;;;;;5.22;1.92;;;;;;;;;;4992046;28;20088;-82
2022/06/12 15:19:15;;;;;;;7.82;1.83;;;;;;;;;;4993717;28;20507;-81
2022/06/12 15:21:46;;;;;;;7.97;1.73;;;;;;;;;;4995307;28;20054;-81
2022/06/12 15:24:17;;;;;;;5.20;1.70;;;;;;;;;;4993420;28;20452;-81
2022/06/12 15:29:51;;;;;;;9.82;1.95;;;;;;;;;;4996010;28;20636;-81
2022/06/12 15:32:30;;;;;;;8.48;1.75;;;;;;;;;;5008607;28;20088;-81
2022/06/12 15:34:59;;;;;;;10.10;1.80;;;;;;;;;;4993196;28;20144;-81
2022/06/12 15:37:27;;;;;;;3.60;1.30;;;;;;;;;;4996367;28;20768;-82
2022/06/12 15:40:19;;;;;;;5.45;1.70;;;;;;;;;;4993539;28;20052;-80
2022/06/12 15:42:47;;;;;;;6.63;1.95;;;;;;;;;;4992468;28;20784;-81
2022/06/12 15:45:19;;;;;;;8.35;1.80;;;;;;;;;;4993910;28;20077;-81
2022/06/12 15:47:47;;;;;;;6.93;2.20;;;;;;;;;;4993659;28;20050;-81
2022/06/12 15:50:15;;;;;;;8.60;1.70;;;;;;;;;;4993422;28;20045;-82
2022/06/12 15:52:47;;;;;;;6.28;1.70;;;;;;;;;;4993335;28;20117;-82
2022/06/12 15:55:15;;;;;;;4.85;1.70;;;;;;;;;;4994627;28;20038;-81
2022/06/12 15:57:43;;;;;;;8.38;1.75;;;;;;;;;;4993996;28;20042;-81
2022/06/12 16:00:11;;;;;;;7.30;1.80;;;;;;;;;;4992887;28;20050;-81
2022/06/12 16:02:45;;;;;;;6.60;1.60;;;;;;;;;;4994171;28;20405;-81
2022/06/12 16:05:14;;;;;;;5.53;1.50;;;;;;;;;;4993613;28;20042;-82
2022/06/12 16:07:47;;;;;;;4.78;1.60;;;;;;;;;;4994681;28;20042;-82
2022/06/12 16:10:30;;;;;;;6.60;1.90;;;;;;;;;;4993797;28;20133;-82
2022/06/12 16:13:03;;;;;;;8.30;2.15;;;;;;;;;;4994253;28;20046;-82
2022/06/12 16:15:31;;;;;;;6.35;1.50;;;;;;;;;;4991907;28;20050;-81
2022/06/12 16:17:59;;;;;;;6.18;1.70;;;;;;;;;;4996019;28;20155;-81
2022/06/12 16:20:27;;;;;;;5.72;1.83;;;;;;;;;;4994011;28;20456;-81
2022/06/12 16:22:59;;;;;;;4.97;1.50;;;;;;;;;;4994988;28;20050;-81
2022/06/12 16:25:27;;;;;;;7.07;1.67;;;;;;;;;;4993884;28;20042;-80
2022/06/12 16:27:55;;;;;;;5.65;1.77;;;;;;;;;;4995091;28;20153;-80
2022/06/12 16:30:23;;;;;;;4.65;1.60;;;;;;;;;;4994387;28;20042;-80
2022/06/12 16:32:51;;;;;;;5.93;1.58;;;;;;;;;;4978479;28;20054;-80
2022/06/12 16:35:43;;;;;;;5.18;1.60;;;;;;;;;;4991685;28;20046;-79
2022/06/12 16:38:36;;;;;;;9.95;1.58;;;;;;;;;;4995135;28;20091;-80
2022/06/12 16:41:03;;;;;;;6.50;1.65;;;;;;;;;;4994184;28;20046;-80
2022/06/12 16:43:36;;;;;;;4.95;1.95;;;;;;;;;;4993674;28;20047;-81
2022/06/12 16:46:03;;;;;;;4.30;1.27;;;;;;;;;;4994375;28;20388;-82
2022/06/12 16:48:35;;;;;;;3.25;1.58;;;;;;;;;;4994142;28;20061;-81
2022/06/12 16:51:12;;;;;;;6.47;1.50;;;;;;;;;;4992921;28;20058;-82
2022/06/12 16:53:50;;;;;;;7.72;1.77;;;;;;;;;;4996250;28;20046;-83
2022/06/12 16:56:41;;;;;;;6.88;1.70;;;;;;;;;;4975640;28;20050;-82
2022/06/12 16:59:23;;;;;;;7.72;1.70;;;;;;;;;;5008940;28;20042;-83
2022/06/12 17:01:51;;;;;;;4.28;1.30;;;;;;;;;;4990686;28;20503;-82
2022/06/12 17:04:26;;;;;;;4.18;1.40;;;;;;;;;;4993491;28;20088;-82
2022/06/12 17:06:53;;;;;;;4.05;1.40;;;;;;;;;;4995089;28;20097;-82
2022/06/12 17:09:22;;;;;;;5.78;1.60;;;;;;;;;;4995741;28;20038;-80